Time;durP1;ratioP1;P1;durP2;ratioP2;P2;SDS_P1;SDS_P2;PMS_P1;PMS_P2;Temp;Humidity;BMP_temperature;BMP_pressure;BME280_temperature;BME280_humidity;BME280_pressure;Samples;Min_cycle;Max_cycle;Signal;HPM_P1;HPM_P2
2021/05/13 00:00:44;;;;;;;42.63;30.45;;;9.80;99.90;;;;;;5033382;28;20872;-74
2021/05/13 00:03:10;;;;;;;44.33;29.93;;;9.80;99.90;;;;;;5033358;28;20393;-74
2021/05/13 00:05:35;;;;;;;47.43;30.80;;;9.70;99.90;;;;;;5022290;28;20401;-74
2021/05/13 00:08:01;;;;;;;45.77;29.80;;;9.70;99.90;;;;;;5013939;28;20512;-76
2021/05/13 00:10:28;;;;;;;44.93;30.67;;;9.60;99.90;;;;;;5014270;28;20393;-76
2021/05/13 00:13:02;;;;;;;49.95;31.75;;;9.60;99.90;;;;;;5013284;28;20403;-73
2021/05/13 00:15:36;;;;;;;50.67;32.50;;;9.60;99.90;;;;;;5013820;28;20400;-76
2021/05/13 00:18:02;;;;;;;45.88;31.23;;;9.60;99.90;;;;;;5013958;28;20875;-75
2021/05/13 00:20:30;;;;;;;45.45;30.92;;;9.60;99.90;;;;;;5011907;28;20401;-74
2021/05/13 00:22:56;;;;;;;42.50;29.10;;;9.70;99.90;;;;;;5013059;28;20757;-75
2021/05/13 00:25:22;;;;;;;43.13;29.27;;;9.70;99.90;;;;;;5013154;28;20774;-74
2021/05/13 00:27:49;;;;;;;42.88;28.33;;;9.90;99.90;;;;;;5013122;28;20409;-74
2021/05/13 00:30:16;;;;;;;45.88;31.58;;;9.80;99.90;;;;;;5028150;28;20408;-74
2021/05/13 00:32:41;;;;;;;51.63;31.70;;;9.70;99.90;;;;;;5032335;28;20848;-74
2021/05/13 00:35:10;;;;;;;48.70;31.40;;;9.50;99.90;;;;;;5033454;28;20445;-74
2021/05/13 00:37:36;;;;;;;52.50;32.50;;;9.40;99.90;;;;;;5032520;28;20483;-74
2021/05/13 00:40:03;;;;;;;55.33;35.37;;;9.40;99.90;;;;;;5032768;28;20395;-72
2021/05/13 00:42:28;;;;;;;52.97;34.35;;;9.30;99.90;;;;;;5016937;28;20396;-73
2021/05/13 00:44:55;;;;;;;54.55;35.00;;;9.30;99.90;;;;;;5012523;28;20389;-74
2021/05/13 00:47:22;;;;;;;56.75;37.38;;;9.30;99.90;;;;;;5012471;28;20745;-73
2021/05/13 00:49:48;;;;;;;58.78;35.92;;;9.30;99.90;;;;;;5012761;28;20396;-73
2021/05/13 00:52:17;;;;;;;67.50;38.75;;;9.20;99.90;;;;;;5012696;28;20396;-74
2021/05/13 00:54:43;;;;;;;61.13;37.38;;;9.20;99.90;;;;;;5028073;28;20928;-73
2021/05/13 00:57:12;;;;;;;63.47;39.70;;;9.10;99.90;;;;;;5032367;28;20442;-74
2021/05/13 00:59:39;;;;;;;71.23;41.70;;;9.10;99.90;;;;;;5032324;28;20391;-73
2021/05/13 01:02:05;;;;;;;79.45;42.88;;;9.10;99.90;;;;;;5032739;28;20763;-74
2021/05/13 01:04:31;;;;;;;68.90;42.33;;;9.20;99.90;;;;;;5017933;28;20397;-73
2021/05/13 01:06:56;;;;;;;75.07;41.30;;;9.10;99.90;;;;;;5012425;28;20809;-74
2021/05/13 01:09:23;;;;;;;62.00;38.73;;;9.10;99.90;;;;;;5012586;28;20411;-74
2021/05/13 01:12:10;;;;;;;72.28;40.70;;;9.20;99.90;;;;;;5012311;28;20384;-73
2021/05/13 01:19:41;;;;;;;69.78;40.38;;;9.00;99.90;;;;;;5012078;28;20381;-75
2021/05/13 01:22:07;;;;;;;66.50;39.78;;;9.00;99.90;;;;;;5012238;28;20890;-74
2021/05/13 01:24:33;;;;;;;61.93;38.50;;;9.00;99.90;;;;;;5023488;28;20418;-74
2021/05/13 01:26:59;;;;;;;58.50;37.05;;;9.10;99.90;;;;;;5031473;28;20497;-74
2021/05/13 01:29:27;;;;;;;57.22;35.13;;;9.20;99.90;;;;;;5031682;28;20930;-74
2021/05/13 01:31:54;;;;;;;57.60;37.30;;;9.20;99.90;;;;;;5031765;28;20470;-74
2021/05/13 01:34:21;;;;;;;57.50;36.53;;;9.00;99.90;;;;;;5020547;28;20404;-73
2021/05/13 01:36:46;;;;;;;59.73;35.80;;;8.90;99.90;;;;;;5011952;28;20478;-74
2021/05/13 01:39:12;;;;;;;55.72;36.22;;;8.80;99.90;;;;;;5011973;28;20389;-73
2021/05/13 01:41:39;;;;;;;65.35;35.70;;;8.80;99.90;;;;;;5010344;28;20464;-73
2021/05/13 01:44:06;;;;;;;52.88;34.65;;;8.90;99.90;;;;;;5019351;28;20552;-74
2021/05/13 01:46:32;;;;;;;60.88;35.75;;;8.90;99.90;;;;;;5031195;28;20383;-74
2021/05/13 01:48:58;;;;;;;59.15;35.80;;;8.80;99.90;;;;;;5030118;28;20414;-73
2021/05/13 01:51:23;;;;;;;56.45;34.42;;;8.80;99.90;;;;;;5031102;28;20399;-73
2021/05/13 01:53:49;;;;;;;57.37;34.43;;;9.10;99.90;;;;;;5024761;28;20396;-74
2021/05/13 01:56:16;;;;;;;52.60;33.80;;;9.10;99.90;;;;;;5020387;28;20474;-73
2021/05/13 01:58:43;;;;;;;56.35;35.10;;;9.00;99.90;;;;;;5031150;28;20528;-73
2021/05/13 02:01:11;;;;;;;54.17;34.25;;;8.90;99.90;;;;;;5014552;28;20396;-72
2021/05/13 02:03:37;;;;;;;56.08;35.58;;;8.90;99.90;;;;;;5020772;28;20407;-74
2021/05/13 02:06:04;;;;;;;55.30;34.22;;;8.80;99.90;;;;;;5030914;28;20472;-74
2021/05/13 02:08:30;;;;;;;50.90;33.78;;;8.70;99.90;;;;;;5030691;28;20439;-74
2021/05/13 02:10:56;;;;;;;49.60;32.50;;;9.00;99.90;;;;;;5030842;28;20389;-73
2021/05/13 02:13:21;;;;;;;49.30;32.25;;;9.30;99.90;;;;;;5028625;28;20386;-73
2021/05/13 02:15:47;;;;;;;52.67;33.00;;;9.40;99.90;;;;;;5010834;28;20388;-73
2021/05/13 02:18:12;;;;;;;54.63;33.85;;;9.20;99.90;;;;;;5011063;28;20396;-73
2021/05/13 02:20:38;;;;;;;54.00;33.70;;;9.10;99.90;;;;;;5011091;28;20396;-73
2021/05/13 02:23:04;;;;;;;55.67;35.30;;;8.90;99.90;;;;;;5013878;28;20402;-74
2021/05/13 02:25:32;;;;;;;61.00;37.47;;;8.80;99.90;;;;;;5030712;28;20399;-76
2021/05/13 02:27:59;;;;;;;68.57;41.03;;;8.70;99.90;;;;;;5030201;28;20445;-73
2021/05/13 02:30:25;;;;;;;63.40;36.78;;;8.70;99.90;;;;;;5028692;28;20402;-74
2021/05/13 02:32:51;;;;;;;60.93;36.60;;;8.70;99.90;;;;;;5011334;28;20585;-74
2021/05/13 02:35:17;;;;;;;65.80;37.97;;;8.60;99.90;;;;;;5022647;28;20395;-74
2021/05/13 02:37:44;;;;;;;58.70;36.17;;;8.60;99.90;;;;;;5032075;28;20460;-75
2021/05/13 02:40:11;;;;;;;59.55;35.92;;;8.60;99.90;;;;;;5031498;28;20903;-75
2021/05/13 02:42:36;;;;;;;67.77;37.87;;;8.60;99.90;;;;;;5016302;28;20505;-75
2021/05/13 02:45:04;;;;;;;66.85;39.00;;;8.50;99.90;;;;;;5011695;28;20385;-74
2021/05/13 02:47:29;;;;;;;66.50;39.75;;;8.50;99.90;;;;;;5011788;28;20459;-75
2021/05/13 02:49:55;;;;;;;63.35;38.75;;;8.40;99.90;;;;;;5011679;28;20388;-75
2021/05/13 02:52:21;;;;;;;58.58;35.92;;;8.40;99.90;;;;;;5023509;28;20411;-74
2021/05/13 02:54:46;;;;;;;62.03;36.90;;;8.40;99.90;;;;;;5031641;28;20390;-73
2021/05/13 02:57:12;;;;;;;60.38;36.22;;;8.50;99.90;;;;;;5032318;28;20891;-74
2021/05/13 02:59:56;;;;;;;60.88;37.10;;;8.40;99.90;;;;;;5032438;28;21034;-74
2021/05/13 03:02:22;;;;;;;63.37;38.20;;;8.40;99.90;;;;;;5030685;28;20403;-74
2021/05/13 03:04:47;;;;;;;63.40;38.10;;;8.30;99.90;;;;;;5010948;28;20737;-75
2021/05/13 03:07:13;;;;;;;69.27;40.30;;;8.30;99.90;;;;;;5011901;28;20420;-75
2021/05/13 03:09:54;;;;;;;67.28;39.40;;;8.30;99.90;;;;;;5013907;28;20493;-73
2021/05/13 03:12:19;;;;;;;60.88;37.47;;;8.30;99.90;;;;;;5028854;28;20388;-75
2021/05/13 03:14:46;;;;;;;61.87;38.93;;;8.70;99.90;;;;;;5030088;28;20394;-73
2021/05/13 03:17:11;;;;;;;61.88;37.60;;;8.70;99.90;;;;;;5027813;28;20868;-73
2021/05/13 03:19:44;;;;;;;64.95;38.28;;;8.50;99.90;;;;;;5043177;28;20396;-72
2021/05/13 03:22:13;;;;;;;61.05;38.40;;;8.40;99.90;;;;;;5030264;28;20383;-75
2021/05/13 03:24:49;;;;;;;61.30;38.85;;;8.50;99.90;;;;;;5016122;28;20432;-74
2021/05/13 03:27:37;;;;;;;64.85;39.00;;;8.60;99.90;;;;;;5010875;28;20400;-75
2021/05/13 03:30:00;;;;;;;67.68;39.28;;;8.50;99.90;;;;;;5010563;28;20932;-74
2021/05/13 03:32:26;;;;;;;64.40;39.25;;;8.40;99.90;;;;;;5010212;28;20388;-74
2021/05/13 03:34:52;;;;;;;70.00;40.20;;;8.40;99.90;;;;;;5024522;28;20398;-74
2021/05/13 03:37:19;;;;;;;69.78;39.85;;;8.30;99.90;;;;;;5011820;28;20405;-74
2021/05/13 03:39:45;;;;;;;65.70;39.42;;;8.30;99.90;;;;;;5012741;28;20861;-74
2021/05/13 03:42:11;;;;;;;69.63;39.43;;;8.30;99.90;;;;;;5012065;28;20416;-74
2021/05/13 03:44:36;;;;;;;67.57;39.63;;;8.20;99.90;;;;;;5015392;28;20443;-77
2021/05/13 03:47:02;;;;;;;70.00;40.30;;;8.30;99.90;;;;;;5030540;28;20398;-77
2021/05/13 03:49:27;;;;;;;62.90;38.80;;;8.30;99.90;;;;;;5037616;28;20552;-76
2021/05/13 03:51:53;;;;;;;67.70;40.30;;;8.20;99.90;;;;;;5062060;22;20454;-81
2021/05/13 03:54:18;;;;;;;61.23;38.50;;;8.20;99.90;;;;;;5077014;28;20394;-81
2021/05/13 03:56:44;;;;;;;69.70;41.50;;;8.20;99.90;;;;;;5077477;28;20415;-81
2021/05/13 03:59:18;;;;;;;67.67;40.53;;;8.20;99.90;;;;;;5078882;28;20380;-77
2021/05/13 04:04:15;;;;;;;66.88;41.22;;;8.30;99.90;;;;;;5062662;28;20394;-81
2021/05/13 04:06:41;;;;;;;73.63;39.58;;;8.30;99.90;;;;;;5068274;28;20403;-81
2021/05/13 04:09:10;;;;;;;66.00;39.80;;;8.40;99.90;;;;;;5079194;28;20479;-78
2021/05/13 04:11:38;;;;;;;64.05;39.40;;;8.40;99.90;;;;;;5073341;28;20405;-80
2021/05/13 04:14:05;;;;;;;60.97;38.80;;;8.50;99.90;;;;;;5058481;28;20385;-81
2021/05/13 04:16:33;;;;;;;62.22;39.05;;;8.60;99.90;;;;;;5067972;28;20484;-80
2021/05/13 04:18:58;;;;;;;58.47;38.67;;;8.70;99.90;;;;;;5078255;28;20380;-80
2021/05/13 04:21:24;;;;;;;68.13;40.30;;;8.80;99.90;;;;;;5077962;28;20874;-80
2021/05/13 04:23:50;;;;;;;61.77;38.60;;;8.70;99.90;;;;;;5077956;28;20415;-81
2021/05/13 04:26:16;;;;;;;65.13;39.55;;;8.70;99.90;;;;;;5074509;28;20414;-79
2021/05/13 04:28:42;;;;;;;66.50;40.47;;;8.70;99.90;;;;;;5076837;28;20764;-80
2021/05/13 04:31:07;;;;;;;62.73;39.90;;;8.70;99.90;;;;;;5076897;28;20413;-79
2021/05/13 04:33:33;;;;;;;66.87;40.07;;;8.70;99.90;;;;;;5081277;28;20447;-81
2021/05/13 04:35:59;;;;;;;67.33;41.53;;;8.70;99.90;;;;;;5080165;28;20415;-80
2021/05/13 04:38:25;;;;;;;67.80;40.40;;;8.80;99.90;;;;;;5076827;28;20392;-79
2021/05/13 04:40:52;;;;;;;65.60;39.10;;;8.90;99.90;;;;;;5077889;28;20438;-80
2021/05/13 04:43:19;;;;;;;60.97;39.03;;;8.90;99.90;;;;;;5081614;28;20429;-80
2021/05/13 04:45:45;;;;;;;66.40;41.20;;;9.00;99.90;;;;;;5078744;28;20420;-80
2021/05/13 04:48:14;;;;;;;59.58;38.47;;;9.00;99.90;;;;;;5059516;28;20599;-82
2021/05/13 04:50:39;;;;;;;59.88;38.72;;;9.10;99.90;;;;;;5058630;28;20390;-81
2021/05/13 04:53:11;;;;;;;60.55;38.47;;;9.10;99.90;;;;;;5057577;28;20407;-80
2021/05/13 04:55:39;;;;;;;59.85;40.42;;;9.20;99.90;;;;;;5059877;28;20388;-81
2021/05/13 04:58:05;;;;;;;62.53;40.70;;;9.20;99.90;;;;;;5078055;28;20379;-81
2021/05/13 05:00:31;;;;;;;64.35;39.72;;;9.30;99.90;;;;;;5077652;28;20632;-81
2021/05/13 05:02:57;;;;;;;59.90;37.78;;;9.40;99.90;;;;;;5071951;28;20368;-80
2021/05/13 05:05:24;;;;;;;58.73;37.47;;;9.40;99.90;;;;;;5055730;28;20401;-80
2021/05/13 05:07:50;;;;;;;56.95;35.95;;;9.50;99.90;;;;;;5058061;28;20402;-81
2021/05/13 05:10:15;;;;;;;59.70;37.90;;;9.60;99.90;;;;;;5075405;28;20388;-80
2021/05/13 05:12:41;;;;;;;53.65;34.90;;;9.70;99.90;;;;;;5062451;28;20939;-81
2021/05/13 05:15:07;;;;;;;53.92;36.00;;;9.70;99.90;;;;;;5056066;28;20390;-80
2021/05/13 05:17:33;;;;;;;51.13;32.33;;;9.80;99.90;;;;;;5056689;28;20381;-80
2021/05/13 05:19:58;;;;;;;54.53;34.90;;;9.90;99.90;;;;;;5064484;28;20965;-80
2021/05/13 05:22:24;;;;;;;44.97;30.93;;;10.00;99.90;;;;;;5076393;28;20437;-79
2021/05/13 05:24:50;;;;;;;45.30;31.00;;;10.10;99.90;;;;;;5060185;28;20483;-80
2021/05/13 05:27:15;;;;;;;47.10;30.83;;;10.30;99.90;;;;;;5072085;28;20891;-74
2021/05/13 05:29:41;;;;;;;41.30;29.67;;;10.30;99.90;;;;;;5058413;28;20409;-74
2021/05/13 05:32:07;;;;;;;40.45;29.17;;;10.40;99.90;;;;;;5050935;28;20412;-73
2021/05/13 05:34:33;;;;;;;39.67;28.83;;;10.40;99.90;;;;;;5049937;28;20389;-73
2021/05/13 05:36:59;;;;;;;41.03;28.88;;;10.60;99.90;;;;;;5042512;28;20463;-74
2021/05/13 05:39:25;;;;;;;43.22;29.40;;;10.60;99.90;;;;;;5034216;28;20405;-73
2021/05/13 05:41:52;;;;;;;38.30;27.80;;;10.60;99.90;;;;;;5051739;28;20611;-74
2021/05/13 05:44:18;;;;;;;38.13;26.58;;;10.70;99.90;;;;;;5052050;28;20425;-74
2021/05/13 05:46:44;;;;;;;38.22;26.15;;;10.80;99.90;;;;;;5053411;28;20808;-74
2021/05/13 05:49:10;;;;;;;31.90;23.45;;;11.00;99.90;;;;;;5049830;28;20880;-74
2021/05/13 05:51:36;;;;;;;35.65;25.42;;;11.00;99.90;;;;;;5054408;28;20407;-74
2021/05/13 05:54:01;;;;;;;35.78;25.83;;;11.20;99.90;;;;;;5070110;28;20725;-72
2021/05/13 05:56:27;;;;;;;33.95;24.90;;;11.20;99.70;;;;;;5056103;28;21015;-74
2021/05/13 05:58:52;;;;;;;34.73;24.43;;;11.30;96.70;;;;;;5044159;28;20418;-75
2021/05/13 06:01:18;;;;;;;28.87;22.30;;;11.50;94.10;;;;;;5038445;28;20881;-74
2021/05/13 06:03:43;;;;;;;35.97;23.60;;;11.60;90.90;;;;;;5053601;28;20405;-75
2021/05/13 06:06:09;;;;;;;32.60;23.83;;;11.80;88.30;;;;;;5049676;28;20397;-75
2021/05/13 06:08:35;;;;;;;32.10;23.33;;;11.90;89.20;;;;;;5045012;28;20405;-74
2021/05/13 06:11:00;;;;;;;31.10;22.47;;;11.90;88.90;;;;;;5048907;28;20944;-74
2021/05/13 06:13:26;;;;;;;29.73;20.47;;;12.00;88.00;;;;;;5048630;28;20397;-75
2021/05/13 06:15:51;;;;;;;28.77;18.27;;;12.20;82.70;;;;;;5052029;28;20401;-73
2021/05/13 06:18:17;;;;;;;26.70;19.80;;;12.20;81.20;;;;;;5052707;28;20476;-74
2021/05/13 06:20:42;;;;;;;26.13;19.47;;;12.30;82.50;;;;;;5052030;28;20880;-74
2021/05/13 06:23:08;;;;;;;26.43;17.70;;;12.40;84.30;;;;;;5051645;28;20785;-74
2021/05/13 06:25:35;;;;;;;21.63;17.52;;;12.50;81.50;;;;;;5053661;28;20428;-73
2021/05/13 06:28:01;;;;;;;22.37;17.20;;;12.60;78.00;;;;;;5049518;28;20467;-73
2021/05/13 06:30:27;;;;;;;27.17;17.30;;;12.60;77.70;;;;;;5052169;28;20393;-75
2021/05/13 06:32:52;;;;;;;22.70;17.27;;;12.80;75.70;;;;;;5059848;28;20393;-74
2021/05/13 06:35:20;;;;;;;22.90;17.67;;;12.80;77.10;;;;;;5055929;28;20397;-74
2021/05/13 06:37:46;;;;;;;22.00;17.00;;;12.90;74.30;;;;;;5062827;28;20397;-75
2021/05/13 06:40:13;;;;;;;22.52;17.75;;;12.90;74.00;;;;;;5032492;28;20402;-75
2021/05/13 06:42:39;;;;;;;21.55;17.25;;;13.00;71.10;;;;;;5047809;28;20396;-80
2021/05/13 06:45:06;;;;;;;25.25;17.40;;;13.10;69.10;;;;;;5055685;28;20424;-76
2021/05/13 06:47:31;;;;;;;25.83;18.00;;;13.10;69.30;;;;;;5050421;28;20914;-76
2021/05/13 06:49:57;;;;;;;23.80;18.17;;;13.30;68.90;;;;;;5056253;28;20391;-76
2021/05/13 06:52:23;;;;;;;25.70;19.20;;;13.40;69.50;;;;;;5050984;28;20397;-76
2021/05/13 06:54:48;;;;;;;24.40;18.97;;;13.50;70.50;;;;;;5047496;28;20405;-75
2021/05/13 06:57:14;;;;;;;26.63;20.27;;;13.50;67.30;;;;;;5050503;28;20515;-74
2021/05/13 06:59:41;;;;;;;25.02;19.27;;;13.60;69.10;;;;;;5050507;28;20381;-74
2021/05/13 07:02:10;;;;;;;26.10;19.95;;;13.70;67.40;;;;;;5049059;28;20928;-75
2021/05/13 07:04:36;;;;;;;25.48;19.75;;;13.80;64.00;;;;;;5049842;28;20393;-75
2021/05/13 07:07:01;;;;;;;28.02;20.67;;;13.80;63.60;;;;;;5048840;28;20451;-75
2021/05/13 07:09:27;;;;;;;25.38;21.02;;;13.90;64.90;;;;;;5050302;28;20432;-73
2021/05/13 07:11:53;;;;;;;26.70;21.38;;;14.00;65.30;;;;;;5044990;28;20476;-74
2021/05/13 07:14:20;;;;;;;26.10;21.07;;;14.00;63.60;;;;;;5051228;28;20390;-74
2021/05/13 07:16:45;;;;;;;31.95;21.60;;;14.10;62.20;;;;;;5050411;28;20397;-74
2021/05/13 07:19:11;;;;;;;26.63;20.43;;;14.20;59.50;;;;;;5051235;28;20397;-75
2021/05/13 07:21:36;;;;;;;27.80;19.43;;;14.20;57.40;;;;;;5050660;28;20412;-75
2021/05/13 07:24:03;;;;;;;24.83;19.02;;;14.40;56.40;;;;;;5053362;28;20479;-74
2021/05/13 07:26:29;;;;;;;24.15;20.17;;;14.40;55.40;;;;;;5056264;28;20401;-75
2021/05/13 07:28:54;;;;;;;24.70;19.00;;;14.60;56.30;;;;;;5051988;28;20486;-75
2021/05/13 07:31:21;;;;;;;28.58;19.95;;;14.60;55.70;;;;;;5054994;28;20393;-75
2021/05/13 07:33:48;;;;;;;28.20;19.30;;;14.70;55.40;;;;;;5054663;28;20401;-75
2021/05/13 07:36:13;;;;;;;24.20;18.27;;;14.90;54.20;;;;;;5054398;28;20754;-73
2021/05/13 07:38:40;;;;;;;20.40;17.80;;;15.00;51.70;;;;;;5055718;28;20437;-79
2021/05/13 07:41:06;;;;;;;21.65;17.17;;;15.00;49.40;;;;;;5057347;28;20421;-81
2021/05/13 07:43:36;;;;;;;20.73;16.10;;;15.00;49.40;;;;;;5060179;28;20394;-81
2021/05/13 07:46:03;;;;;;;17.60;15.32;;;15.00;46.80;;;;;;5060284;28;20415;-82
2021/05/13 07:48:30;;;;;;;19.55;14.63;;;15.10;45.00;;;;;;5059470;28;20417;-81
2021/05/13 07:50:56;;;;;;;19.65;14.38;;;15.20;44.40;;;;;;5060310;28;20424;-80
2021/05/13 07:53:22;;;;;;;20.30;13.87;;;15.30;44.50;;;;;;5060926;28;20401;-80
2021/05/13 07:55:48;;;;;;;19.92;13.50;;;15.40;44.00;;;;;;5058022;28;20398;-80
2021/05/13 07:58:13;;;;;;;18.17;13.40;;;15.50;44.30;;;;;;5063410;28;20401;-81
2021/05/13 08:00:40;;;;;;;17.93;13.20;;;15.50;42.30;;;;;;5056785;28;20424;-80
2021/05/13 08:03:06;;;;;;;15.55;12.43;;;15.60;42.90;;;;;;5058229;28;20474;-79
2021/05/13 08:05:31;;;;;;;15.17;11.87;;;15.60;39.00;;;;;;5066040;28;20438;-81
2021/05/13 08:07:57;;;;;;;14.40;11.50;;;15.70;38.70;;;;;;5068917;28;20410;-80
2021/05/13 08:10:23;;;;;;;17.98;11.68;;;15.90;37.30;;;;;;5072666;28;20450;-80
2021/05/13 08:12:49;;;;;;;14.13;12.20;;;15.90;37.00;;;;;;5059952;28;20868;-81
2021/05/13 08:15:15;;;;;;;22.08;14.70;;;16.00;36.10;;;;;;5047416;28;20484;-77
2021/05/13 08:17:42;;;;;;;16.85;12.90;;;16.30;35.90;;;;;;5059370;28;20405;-79
2021/05/13 08:20:10;;;;;;;16.73;12.15;;;16.50;33.40;;;;;;5059024;28;20539;-79
2021/05/13 08:22:36;;;;;;;18.45;12.23;;;16.50;32.60;;;;;;5058247;28;20400;-78
2021/05/13 08:25:04;;;;;;;17.90;12.07;;;16.40;33.50;;;;;;5061644;28;20382;-79
2021/05/13 08:27:30;;;;;;;14.98;11.88;;;16.50;31.70;;;;;;5056479;28;20462;-81
2021/05/13 08:29:57;;;;;;;16.00;11.43;;;16.60;31.60;;;;;;5056925;28;20500;-75
2021/05/13 08:32:24;;;;;;;16.50;12.15;;;16.60;31.50;;;;;;5055597;28;20903;-81
2021/05/13 08:34:52;;;;;;;19.25;11.30;;;16.60;30.60;;;;;;5056862;28;20419;-80
2021/05/13 08:37:17;;;;;;;17.50;11.80;;;16.60;30.10;;;;;;5074810;28;20401;-79
2021/05/13 08:39:43;;;;;;;14.80;12.30;;;16.60;30.80;;;;;;5072915;28;20462;-79
2021/05/13 08:42:08;;;;;;;15.70;11.75;;;16.70;30.20;;;;;;5062443;28;20421;-78
2021/05/13 08:44:36;;;;;;;15.65;11.63;;;17.00;29.70;;;;;;5067115;28;20389;-79
2021/05/13 08:47:01;;;;;;;17.17;12.75;;;17.20;27.80;;;;;;5058145;28;20506;-79
2021/05/13 08:49:27;;;;;;;15.75;11.30;;;17.30;27.20;;;;;;5055971;28;20497;-79
2021/05/13 08:51:54;;;;;;;14.80;10.60;;;17.30;25.50;;;;;;5056516;28;20393;-80
2021/05/13 08:54:23;;;;;;;12.00;10.45;;;17.20;24.50;;;;;;5058017;28;20413;-78
2021/05/13 08:56:49;;;;;;;14.32;10.93;;;17.30;23.40;;;;;;5056820;28;20451;-78
2021/05/13 08:59:15;;;;;;;17.33;13.35;;;17.20;23.90;;;;;;5060624;28;20401;-82
2021/05/13 09:01:55;;;;;;;18.42;10.30;;;17.10;25.00;;;;;;5052314;28;20884;-73
2021/05/13 09:04:20;;;;;;;16.02;10.73;;;17.40;21.50;;;;;;5053500;28;20439;-80
2021/05/13 09:06:46;;;;;;;15.43;11.03;;;17.30;22.50;;;;;;5062600;28;20409;-78
2021/05/13 09:09:13;;;;;;;13.45;10.48;;;17.40;21.90;;;;;;5065896;28;20496;-82
2021/05/13 09:11:57;;;;;;;10.35;8.07;;;17.50;19.40;;;;;;5055738;28;20389;-83
2021/05/13 09:14:29;;;;;;;13.27;9.15;;;17.60;18.70;;;;;;5056842;28;20389;-83
2021/05/13 09:16:55;;;;;;;14.90;8.65;;;17.50;19.90;;;;;;5054990;28;20404;-81
2021/05/13 09:19:26;;;;;;;11.73;7.15;;;17.70;19.70;;;;;;5055849;28;20393;-78
2021/05/13 09:21:59;;;;;;;15.45;8.40;;;17.90;20.40;;;;;;5054264;28;20885;-79
2021/05/13 09:24:43;;;;;;;14.68;8.10;;;18.30;17.90;;;;;;5050734;28;20401;-77
2021/05/13 09:27:22;;;;;;;11.85;7.68;;;18.40;17.80;;;;;;5050735;28;20516;-76
2021/05/13 09:30:05;;;;;;;10.68;7.70;;;18.40;17.90;;;;;;5052783;28;20463;-75
2021/05/13 09:32:30;;;;;;;10.95;8.00;;;18.50;17.30;;;;;;5053527;28;20393;-74
2021/05/13 09:35:10;;;;;;;12.55;8.00;;;18.40;16.90;;;;;;5054553;28;20469;-74
2021/05/13 09:37:38;;;;;;;11.83;7.90;;;18.30;17.90;;;;;;5067868;28;20421;-75
2021/05/13 09:40:04;;;;;;;10.30;7.28;;;18.30;17.30;;;;;;5037609;28;20476;-73
2021/05/13 09:42:31;;;;;;;9.20;7.43;;;18.50;16.80;;;;;;5044455;28;20423;-77
2021/05/13 09:44:56;;;;;;;11.80;7.20;;;18.80;15.50;;;;;;5059143;28;20420;-75
2021/05/13 09:47:27;;;;;;;6.47;3.60;;;19.00;13.30;;;;;;5044751;28;20409;-72
2021/05/13 09:49:59;;;;;;;6.03;4.28;;;18.80;11.60;;;;;;5045889;28;20416;-73
2021/05/13 09:52:49;;;;;;;7.23;5.00;;;18.70;11.40;;;;;;5078141;22;20440;-71
2021/05/13 09:55:34;;;;;;;7.00;5.20;;;18.60;12.10;;;;;;5050939;28;20865;-71
2021/05/13 09:58:00;;;;;;;6.60;4.20;;;18.60;12.30;;;;;;5059503;28;20387;-72
2021/05/13 10:00:32;;;;;;;10.18;4.30;;;18.90;11.40;;;;;;5069219;28;20395;-72
2021/05/13 10:02:58;;;;;;;7.72;4.45;;;19.00;10.50;;;;;;5065701;28;20738;-72
2021/05/13 10:05:23;;;;;;;6.28;3.65;;;19.00;10.90;;;;;;5050672;28;20608;-70
2021/05/13 10:07:49;;;;;;;6.10;3.50;;;19.30;9.30;;;;;;5050047;28;20990;-72
2021/05/13 10:10:15;;;;;;;6.40;2.90;;;19.20;10.40;;;;;;5062261;28;20445;-72
2021/05/13 10:12:43;;;;;;;5.33;3.17;;;18.90;9.60;;;;;;5059311;28;20381;-72
2021/05/13 10:15:10;;;;;;;4.47;3.10;;;18.70;11.60;;;;;;5049665;28;20381;-71
2021/05/13 10:17:43;;;;;;;6.70;3.65;;;18.60;9.90;;;;;;5051627;28;20765;-71
2021/05/13 10:20:10;;;;;;;9.00;3.35;;;18.40;10.10;;;;;;5054716;28;20784;-71
2021/05/13 10:22:36;;;;;;;5.32;3.13;;;18.60;10.00;;;;;;5066685;28;20475;-71
2021/05/13 10:25:41;;;;;;;5.15;3.30;;;18.70;9.70;;;;;;5062742;28;20822;-71
2021/05/13 10:28:08;;;;;;;7.45;3.60;;;18.80;9.20;;;;;;4977515;28;20422;-74
2021/05/13 10:30:36;;;;;;;7.03;2.50;;;18.90;9.00;;;;;;4973158;28;20412;-72
2021/05/13 10:33:09;;;;;;;3.85;2.30;;;19.00;6.00;;;;;;5013748;28;20401;-72
2021/05/13 10:35:36;;;;;;;4.00;1.90;;;18.90;4.60;;;;;;5049960;28;20393;-72
2021/05/13 10:38:06;;;;;;;6.55;2.53;;;18.60;6.00;;;;;;5051449;28;20468;-71
2021/05/13 10:43:09;;;;;;;5.88;2.22;;;18.90;5.20;;;;;;5071250;28;20398;-71
2021/05/13 10:45:35;;;;;;;3.65;2.10;;;19.30;4.20;;;;;;5052833;28;20393;-72
2021/05/13 10:48:14;;;;;;;5.97;2.88;;;19.30;5.30;;;;;;5051213;28;20443;-72
2021/05/13 10:51:04;;;;;;;19.40;13.38;;;19.40;4.90;;;;;;5054770;28;20875;-73
2021/05/13 10:53:36;;;;;;;13.27;7.03;;;19.30;5.80;;;;;;5061079;28;20903;-71
2021/05/13 10:56:24;;;;;;;14.60;8.10;;;19.20;6.30;;;;;;5038618;28;20436;-71
2021/05/13 10:59:01;;;;;;;8.97;6.43;;;19.30;5.10;;;;;;5055477;28;20762;-72
2021/05/13 11:01:33;;;;;;;5.22;3.15;;;19.20;5.30;;;;;;5055979;28;20384;-72
2021/05/13 11:04:32;;;;;;;4.93;2.63;;;19.20;5.10;;;;;;5056132;28;20492;-72
2021/05/13 11:07:05;;;;;;;5.57;2.70;;;19.60;5.10;;;;;;5012019;28;20476;-71
2021/05/13 11:09:41;;;;;;;7.32;3.30;;;19.60;5.70;;;;;;5054867;28;20758;-72
2021/05/13 11:12:23;;;;;;;4.17;2.10;;;19.60;7.00;;;;;;5055125;28;20445;-72
2021/05/13 11:18:04;;;;;;;8.05;3.13;;;20.10;3.80;;;;;;5074385;28;21701;-71
2021/05/13 11:20:31;;;;;;;3.45;2.38;;;20.30;4.50;;;;;;5059796;28;20387;-71
2021/05/13 11:22:57;;;;;;;9.60;6.20;;;20.50;4.10;;;;;;5065114;28;20745;-71
2021/05/13 11:25:36;;;;;;;6.33;4.87;;;20.60;4.80;;;;;;5069985;28;20381;-72
2021/05/13 11:28:17;;;;;;;9.00;3.85;;;20.60;5.30;;;;;;5070889;28;20399;-71
2021/05/13 11:30:43;;;;;;;3.50;3.20;;;20.30;4.50;;;;;;5074837;28;20391;-72
2021/05/13 11:33:09;;;;;;;6.87;3.40;;;20.20;4.90;;;;;;5064914;28;20430;-71
2021/05/13 11:35:37;;;;;;;5.28;3.15;;;20.10;4.40;;;;;;5056454;28;20396;-71
2021/05/13 11:38:19;;;;;;;6.25;3.58;;;20.20;4.50;;;;;;5057104;28;20723;-72
2021/05/13 11:40:46;;;;;;;3.05;2.55;;;20.10;3.50;;;;;;5034744;28;20403;-71
2021/05/13 11:43:31;;;;;;;5.63;3.30;;;20.20;4.40;;;;;;5042143;28;20389;-71
2021/05/13 11:45:59;;;;;;;5.82;3.50;;;20.30;4.30;;;;;;5054281;28;20443;-71
2021/05/13 11:48:36;;;;;;;7.65;3.40;;;20.40;4.50;;;;;;5055013;28;20763;-70
2021/05/13 11:51:13;;;;;;;5.40;3.28;;;20.30;4.30;;;;;;5054987;28;20427;-72
2021/05/13 11:53:44;;;;;;;4.05;2.45;;;20.20;4.50;;;;;;5060348;28;20403;-71
2021/05/13 11:56:13;;;;;;;4.30;3.00;;;20.50;1.80;;;;;;5068194;28;20400;-71
2021/05/13 11:58:43;;;;;;;10.57;6.07;;;20.70;2.40;;;;;;5055959;28;20907;-71
2021/05/13 12:01:14;;;;;;;5.93;3.33;;;20.70;2.20;;;;;;5055017;28;20765;-71
2021/05/13 12:03:40;;;;;;;4.03;3.20;;;20.70;2.60;;;;;;5057121;28;20395;-71
2021/05/13 12:06:06;;;;;;;4.97;3.53;;;20.90;2.40;;;;;;5074732;28;20414;-71
2021/05/13 12:08:34;;;;;;;5.55;3.00;;;21.00;2.00;;;;;;5074996;28;20844;-71
2021/05/13 12:10:59;;;;;;;4.68;2.83;;;21.10;2.50;;;;;;5076614;28;20392;-71
2021/05/13 12:13:28;;;;;;;14.90;8.40;;;21.10;2.50;;;;;;5058124;28;20408;-70
2021/05/13 12:16:04;;;;;;;18.83;10.15;;;21.10;2.10;;;;;;5055330;28;20407;-72
2021/05/13 12:18:30;;;;;;;4.60;2.78;;;21.50;2.40;;;;;;5055019;28;20421;-72
2021/05/13 12:20:57;;;;;;;4.25;3.38;;;21.30;2.60;;;;;;5055602;28;20454;-70
2021/05/13 12:23:24;;;;;;;5.20;2.40;;;21.50;3.00;;;;;;5054527;28;20423;-74
2021/05/13 12:25:50;;;;;;;5.38;2.20;;;21.70;3.50;;;;;;5079374;28;20404;-71
2021/05/13 12:28:17;;;;;;;5.18;3.65;;;21.90;1.30;;;;;;5082289;28;20400;-72
2021/05/13 12:30:54;;;;;;;3.00;2.42;;;22.00;1.80;;;;;;5078408;28;20391;-72
2021/05/13 12:33:29;;;;;;;4.65;2.60;;;22.10;1.90;;;;;;5067539;28;20639;-72
2021/05/13 12:35:55;;;;;;;6.07;3.40;;;22.10;2.70;;;;;;5061308;28;20397;-73
2021/05/13 12:38:25;;;;;;;3.33;2.70;;;21.70;2.90;;;;;;5078778;28;20417;-72
2021/05/13 12:41:10;;;;;;;2.95;2.50;;;21.60;2.90;;;;;;5068262;28;20397;-74
2021/05/13 12:43:37;;;;;;;5.13;3.20;;;21.80;3.50;;;;;;5055013;28;20421;-73
2021/05/13 12:46:23;;;;;;;3.10;2.60;;;21.60;2.50;;;;;;5053205;28;20405;-73
2021/05/13 12:48:51;;;;;;;6.50;3.20;;;21.30;2.60;;;;;;5058091;28;20583;-73
2021/05/13 12:51:21;;;;;;;7.15;3.75;;;20.80;3.90;;;;;;5058874;28;20393;-73
2021/05/13 12:53:56;;;;;;;3.83;2.60;;;20.60;2.80;;;;;;5046015;28;20416;-71
2021/05/13 12:56:30;;;;;;;5.20;2.90;;;20.60;3.20;;;;;;5048636;28;20386;-72